Time;durP1;ratioP1;P1;durP2;ratioP2;P2;SDS_P1;SDS_P2;PMS_P1;PMS_P2;Temp;Humidity;BMP_temperature;BMP_pressure;BME280_temperature;BME280_humidity;BME280_pressure;Samples;Min_cycle;Max_cycle;Signal;HPM_P1;HPM_P2
2021/04/13 00:01:10;;;;;;;;;;;5.60;81.50;;;;;;4303648;33;43672;-76
2021/04/13 00:04:03;;;;;;;;;;;5.60;81.50;;;;;;4316373;33;43827;-76
2021/04/13 00:06:41;;;;;;;;;;;5.60;81.40;;;;;;4298566;33;20043;-76
2021/04/13 00:09:31;;;;;;;;;;;5.60;81.50;;;;;;4304520;33;20430;-76
2021/04/13 00:12:03;;;;;;;;;;;5.60;81.50;;;;;;4303469;33;43416;-76
2021/04/13 00:14:35;;;;;;;;;;;5.60;81.50;;;;;;4315632;33;19997;-76
2021/04/13 00:17:11;;;;;;;;;;;5.50;81.50;;;;;;4317516;33;20427;-76
2021/04/13 00:19:52;;;;;;;;;;;5.50;81.50;;;;;;4315647;33;43935;-76
2021/04/13 00:22:28;;;;;;;;;;;5.50;81.40;;;;;;4292978;33;20024;-76
2021/04/13 00:24:55;;;;;;;;;;;5.50;81.40;;;;;;4303638;33;36518;-76
2021/04/13 00:27:26;;;;;;;;;;;5.50;81.40;;;;;;4302932;33;39791;-76
2021/04/13 00:30:04;;;;;;;;;;;5.50;81.40;;;;;;4303326;33;42362;-76
2021/04/13 00:32:33;;;;;;;;;;;5.50;81.40;;;;;;4316456;33;41658;-76
2021/04/13 00:35:14;;;;;;;;;;;5.50;81.40;;;;;;4316050;33;35224;-75
2021/04/13 00:37:44;;;;;;;;;;;5.50;81.40;;;;;;4304209;33;20022;-76
2021/04/13 00:40:20;;;;;;;;;;;5.40;81.40;;;;;;4291568;33;38449;-75
2021/04/13 00:42:53;;;;;;;;;;;5.40;81.30;;;;;;4304034;33;19994;-76
2021/04/13 00:45:26;;;;;;;;;;;5.40;81.30;;;;;;4304257;33;20049;-76
2021/04/13 00:48:00;;;;;;;;;;;5.40;81.30;;;;;;4304163;33;20050;-76
2021/04/13 00:50:36;;;;;;;;;;;5.40;81.20;;;;;;4303061;33;44286;-76
2021/04/13 00:53:10;;;;;;;;;;;5.40;81.30;;;;;;4304335;33;20014;-76
2021/04/13 00:55:48;;;;;;;;;;;5.30;81.20;;;;;;4304338;33;20421;-76
2021/04/13 00:58:20;;;;;;;;;;;5.40;81.30;;;;;;4315821;33;20012;-76
2021/04/13 01:00:52;;;;;;;;;;;5.30;81.10;;;;;;4303830;33;20085;-76
2021/04/13 01:03:25;;;;;;;;;;;5.40;81.10;;;;;;4315791;33;20005;-76
2021/04/13 01:06:01;;;;;;;;;;;5.40;81.00;;;;;;4304359;33;20061;-76
2021/04/13 01:08:34;;;;;;;;;;;5.30;80.80;;;;;;4304171;33;20049;-76
2021/04/13 01:11:13;;;;;;;;;;;5.40;80.90;;;;;;4304009;33;20012;-76
2021/04/13 01:13:46;;;;;;;;;;;5.30;80.80;;;;;;4291746;33;19998;-76
2021/04/13 01:16:32;;;;;;;;;;;5.30;80.80;;;;;;4304495;33;20359;-75
2021/04/13 01:19:27;;;;;;;;;;;5.30;80.70;;;;;;4316877;33;20065;-75
2021/04/13 01:22:15;;;;;;;;;;;5.30;80.70;;;;;;4290549;33;20023;-75
2021/04/13 01:24:50;;;;;;;;;;;5.30;80.70;;;;;;4296504;33;20399;-75
2021/04/13 01:27:23;;;;;;;;;;;5.20;80.70;;;;;;4303683;33;20063;-75
2021/04/13 01:30:00;;;;;;;;;;;5.20;80.70;;;;;;4317292;33;20028;-75
2021/04/13 01:32:35;;;;;;;;;;;5.20;80.70;;;;;;4304144;33;20114;-75
2021/04/13 01:35:10;;;;;;;;;;;5.20;80.70;;;;;;4304178;33;20020;-75
2021/04/13 01:40:33;;;;;;;;;;;5.20;80.80;;;;;;4319753;33;20016;-75
2021/04/13 01:43:05;;;;;;;;;;;5.10;80.70;;;;;;4306789;33;20002;-75
2021/04/13 01:45:40;;;;;;;;;;;5.10;80.70;;;;;;4307132;33;20388;-75
2021/04/13 01:48:13;;;;;;;;;;;5.10;80.70;;;;;;4305856;33;27625;-75
2021/04/13 01:50:41;;;;;;;;;;;5.10;80.70;;;;;;4305933;33;32519;-75
2021/04/13 01:53:08;;;;;;;;;;;5.10;80.70;;;;;;4318378;33;35615;-75
2021/04/13 01:55:36;;;;;;;;;;;5.10;80.70;;;;;;4305422;33;27082;-75
2021/04/13 01:58:32;;;;;;;;;;;5.10;80.70;;;;;;4305016;33;41284;-75
2021/04/13 02:01:23;;;;;;;;;;;5.10;80.70;;;;;;4279194;33;43004;-75
2021/04/13 02:04:02;;;;;;;;;;;5.00;80.60;;;;;;4314758;33;43312;-75
2021/04/13 02:06:35;;;;;;;;;;;5.00;81.30;;;;;;4318626;33;44254;-75
2021/04/13 02:09:24;;;;;;;;;;;5.00;80.60;;;;;;4305931;33;20014;-75
2021/04/13 02:11:53;;;;;;;;;;;5.00;80.60;;;;;;4318687;33;34005;-75
2021/04/13 02:14:21;;;;;;;;;;;5.00;80.60;;;;;;4304940;33;43881;-76
2021/04/13 02:17:03;;;;;;;;;;;5.00;80.60;;;;;;4305041;33;39605;-75
2021/04/13 02:19:30;;;;;;;;;;;4.90;80.60;;;;;;4305128;33;43991;-75
2021/04/13 02:22:08;;;;;;;;;;;4.90;80.60;;;;;;4304861;33;44819;-75
2021/04/13 02:24:41;;;;;;;;;;;4.90;80.70;;;;;;4318148;33;43614;-75
2021/04/13 02:27:12;;;;;;;;;;;4.90;80.80;;;;;;4304978;33;44473;-75
2021/04/13 02:29:47;;;;;;;;;;;4.80;80.70;;;;;;4319282;33;20065;-75
2021/04/13 02:32:34;;;;;;;;;;;4.80;80.80;;;;;;4306265;33;20023;-75
2021/04/13 02:35:14;;;;;;;;;;;4.70;80.80;;;;;;4305653;33;20013;-75
2021/04/13 02:37:51;;;;;;;;;;;4.70;81.00;;;;;;4319176;33;20445;-75
2021/04/13 02:40:27;;;;;;;;;;;4.70;81.10;;;;;;4319365;33;20024;-75
2021/04/13 02:43:01;;;;;;;;;;;4.70;81.20;;;;;;4306225;33;20486;-75
2021/04/13 02:45:34;;;;;;;;;;;4.70;81.20;;;;;;4305785;33;20054;-75
2021/04/13 02:48:15;;;;;;;;;;;4.60;81.10;;;;;;4306035;33;20041;-76
2021/04/13 02:50:55;;;;;;;;;;;4.60;81.10;;;;;;4305416;33;20017;-75
2021/04/13 02:53:34;;;;;;;;;;;4.60;81.20;;;;;;4317580;33;20002;-75
2021/04/13 02:56:07;;;;;;;;;;;4.60;81.20;;;;;;4293846;33;20058;-75
2021/04/13 02:58:42;;;;;;;;;;;4.60;81.20;;;;;;4304784;33;20006;-75
2021/04/13 03:01:15;;;;;;;;;;;4.60;81.20;;;;;;4305702;33;20002;-75
2021/04/13 03:03:45;;;;;;;;;;;4.60;81.00;;;;;;4306028;33;20333;-75
2021/04/13 03:06:14;;;;;;;;;;;4.60;81.00;;;;;;4317439;33;44725;-75
2021/04/13 03:08:47;;;;;;;;;;;4.60;81.00;;;;;;4317554;33;32855;-75
2021/04/13 03:11:21;;;;;;;;;;;4.50;80.90;;;;;;4292622;33;33450;-75
2021/04/13 03:13:49;;;;;;;;;;;4.50;81.00;;;;;;4304419;33;37171;-75
2021/04/13 03:16:18;;;;;;;;;;;4.50;81.00;;;;;;4304067;33;40755;-75
2021/04/13 03:18:47;;;;;;;;;;;4.50;80.90;;;;;;4304174;33;42627;-75
2021/04/13 03:21:27;;;;;;;;;;;4.50;80.90;;;;;;4318285;33;20014;-76
2021/04/13 03:23:56;;;;;;;;;;;4.50;80.90;;;;;;4304843;33;23047;-76
2021/04/13 03:26:29;;;;;;;;;;;4.50;80.90;;;;;;4318076;33;20061;-76
2021/04/13 03:29:07;;;;;;;;;;;4.40;80.80;;;;;;4293409;33;20362;-76
2021/04/13 03:31:35;;;;;;;;;;;4.40;80.90;;;;;;4305032;33;20442;-76
2021/04/13 03:34:03;;;;;;;;;;;4.50;80.90;;;;;;4305325;33;20065;-76
2021/04/13 03:36:36;;;;;;;;;;;4.40;80.80;;;;;;4305243;33;20363;-76
2021/04/13 03:39:17;;;;;;;;;;;4.40;80.70;;;;;;4305685;33;20005;-75
2021/04/13 03:41:56;;;;;;;;;;;4.50;80.70;;;;;;4305445;33;20018;-75
2021/04/13 03:44:23;;;;;;;;;;;4.50;80.60;;;;;;4305243;33;20069;-76
2021/04/13 03:46:55;;;;;;;;;;;4.50;80.50;;;;;;4304826;33;20410;-75
2021/04/13 03:49:30;;;;;;;;;;;4.50;80.40;;;;;;4316849;33;44642;-75
2021/04/13 03:52:01;;;;;;;;;;;4.50;80.30;;;;;;4303866;33;43925;-75
2021/04/13 03:54:39;;;;;;;;;;;4.50;80.30;;;;;;4304627;33;20012;-76
2021/04/13 03:57:11;;;;;;;;;;;4.50;80.30;;;;;;4304637;33;20430;-76
2021/04/13 03:59:53;;;;;;;;;;;4.50;80.20;;;;;;4318007;33;20069;-76
2021/04/13 04:02:26;;;;;;;;;;;4.50;80.00;;;;;;4303600;33;20395;-76
2021/04/13 04:05:09;;;;;;;;;;;4.50;80.10;;;;;;4316910;33;20013;-75
2021/04/13 04:08:01;;;;;;;;;;;4.50;80.00;;;;;;4316261;33;20005;-76
2021/04/13 04:10:45;;;;;;;;;;;4.50;80.10;;;;;;4304368;33;21523;-76
2021/04/13 04:13:11;;;;;;;;;;;4.40;80.10;;;;;;4303530;33;44259;-75
2021/04/13 04:15:40;;;;;;;;;;;4.40;80.20;;;;;;4304089;33;20074;-76
2021/04/13 04:18:18;;;;;;;;;;;4.30;80.20;;;;;;4317986;33;20020;-76
2021/04/13 04:20:45;;;;;;;;;;;4.40;80.30;;;;;;4292024;33;20016;-76
2021/04/13 04:23:25;;;;;;;;;;;4.40;80.30;;;;;;4317955;33;20013;-76
2021/04/13 04:25:53;;;;;;;;;;;4.40;80.20;;;;;;4304237;33;20017;-75
2021/04/13 04:28:28;;;;;;;;;;;4.40;80.20;;;;;;4304977;33;20005;-76
2021/04/13 04:31:18;;;;;;;;;;;4.40;80.20;;;;;;4304396;33;20109;-75
2021/04/13 04:33:48;;;;;;;;;;;4.40;80.20;;;;;;4304387;33;20014;-76
2021/04/13 04:36:31;;;;;;;;;;;4.40;80.20;;;;;;4304264;33;20014;-76
2021/04/13 04:39:16;;;;;;;;;;;4.40;80.20;;;;;;4316758;33;20072;-76
2021/04/13 04:41:44;;;;;;;;;;;4.40;80.20;;;;;;4304215;33;20009;-76
2021/04/13 04:44:40;;;;;;;;;;;4.40;80.20;;;;;;4316041;33;20086;-76
2021/04/13 04:47:26;;;;;;;;;;;4.40;80.20;;;;;;4310751;33;20079;-76
2021/04/13 04:49:53;;;;;;;;;;;4.30;80.20;;;;;;4303662;33;20329;-76
2021/04/13 04:52:22;;;;;;;;;;;4.30;80.20;;;;;;4317178;33;20006;-76
2021/04/13 04:54:55;;;;;;;;;;;4.30;80.30;;;;;;4316427;33;20030;-75
2021/04/13 04:57:27;;;;;;;;;;;4.30;80.40;;;;;;4304337;33;20017;-76
2021/04/13 04:59:54;;;;;;;;;;;4.30;80.50;;;;;;4316585;33;43287;-76
2021/04/13 05:02:20;;;;;;;;;;;4.20;80.50;;;;;;4291473;33;20320;-76
2021/04/13 05:04:47;;;;;;;;;;;4.20;80.40;;;;;;4302537;33;44535;-76
2021/04/13 05:07:16;;;;;;;;;;;4.20;80.30;;;;;;4302542;33;44652;-76
2021/04/13 05:09:43;;;;;;;;;;;4.30;80.30;;;;;;4302654;33;41905;-76
2021/04/13 05:12:19;;;;;;;;;;;4.30;80.30;;;;;;4316284;33;43570;-76
2021/04/13 05:14:48;;;;;;;;;;;4.20;80.20;;;;;;4293901;33;36231;-76
2021/04/13 05:17:20;;;;;;;;;;;4.30;80.30;;;;;;4305417;33;44706;-76
2021/04/13 05:19:47;;;;;;;;;;;4.30;80.20;;;;;;4306313;33;31380;-76
2021/04/13 05:22:19;;;;;;;;;;;4.20;80.10;;;;;;4320248;33;20033;-76
2021/04/13 05:24:48;;;;;;;;;;;4.20;80.20;;;;;;4305845;33;44183;-76
2021/04/13 05:27:17;;;;;;;;;;;4.20;80.40;;;;;;4305752;33;44683;-76
2021/04/13 05:29:46;;;;;;;;;;;4.20;80.40;;;;;;4305339;33;43337;-76
2021/04/13 05:32:15;;;;;;;;;;;4.20;80.40;;;;;;4293617;33;44529;-76
2021/04/13 05:34:44;;;;;;;;;;;4.20;80.50;;;;;;4319563;33;20006;-76
2021/04/13 05:37:14;;;;;;;;;;;4.10;80.60;;;;;;4306518;33;20025;-76
2021/04/13 05:39:44;;;;;;;;;;;4.10;80.70;;;;;;4305624;33;44680;-76
2021/04/13 05:42:22;;;;;;;;;;;4.10;80.90;;;;;;4305227;33;43930;-76
2021/04/13 05:44:50;;;;;;;;;;;4.10;81.00;;;;;;4319860;33;20466;-75
2021/04/13 05:47:23;;;;;;;;;;;4.00;81.10;;;;;;4306208;33;20008;-75
2021/04/13 05:49:50;;;;;;;;;;;4.00;81.20;;;;;;4319624;33;20006;-76
2021/04/13 05:52:16;;;;;;;;;;;4.00;81.30;;;;;;4306799;33;20014;-76
2021/04/13 05:54:43;;;;;;;;;;;4.10;81.40;;;;;;4306384;33;20005;-76
2021/04/13 05:57:14;;;;;;;;;;;4.00;81.40;;;;;;4306489;33;20006;-75
2021/04/13 05:59:44;;;;;;;;;;;4.00;81.50;;;;;;4306110;33;22094;-75
2021/04/13 06:02:12;;;;;;;;;;;4.00;81.50;;;;;;4317837;33;43279;-76
2021/04/13 06:04:41;;;;;;;;;;;4.00;81.50;;;;;;4318235;33;43672;-76
2021/04/13 06:07:10;;;;;;;;;;;4.00;81.70;;;;;;4305202;33;43488;-75
2021/04/13 06:09:39;;;;;;;;;;;4.00;81.90;;;;;;4318672;33;22168;-76
2021/04/13 06:12:08;;;;;;;;;;;4.00;81.90;;;;;;4304803;33;43637;-75
2021/04/13 06:14:35;;;;;;;;;;;4.00;81.90;;;;;;4304718;33;43620;-75
2021/04/13 06:17:03;;;;;;;;;;;4.00;81.90;;;;;;4305794;33;20089;-75
2021/04/13 06:19:32;;;;;;;;;;;3.90;81.90;;;;;;4318317;33;29095;-75
2021/04/13 06:21:59;;;;;;;;;;;3.90;82.00;;;;;;4318197;33;44661;-75
2021/04/13 06:24:28;;;;;;;;;;;3.90;82.10;;;;;;4304383;33;43998;-75
2021/04/13 06:26:58;;;;;;;;;;;3.90;82.20;;;;;;4317676;33;43474;-76
2021/04/13 06:29:33;;;;;;;;;;;3.90;82.20;;;;;;4293131;33;45112;-76
2021/04/13 06:32:03;;;;;;;;;;;3.90;82.20;;;;;;4316625;33;43078;-76
2021/04/13 06:34:29;;;;;;;;;;;3.90;82.30;;;;;;4318724;33;20006;-76
2021/04/13 06:37:03;;;;;;;;;;;3.90;82.40;;;;;;4318854;33;20075;-76
2021/04/13 06:39:34;;;;;;;;;;;3.90;82.50;;;;;;4293654;33;20004;-76
2021/04/13 06:42:10;;;;;;;;;;;3.90;82.60;;;;;;4317915;33;44714;-76
2021/04/13 06:44:48;;;;;;;;;;;4.00;82.70;;;;;;4318576;33;20940;-76
2021/04/13 06:47:23;;;;;;;;;;;3.90;82.60;;;;;;4318983;33;20010;-76
2021/04/13 06:50:05;;;;;;;;;;;3.90;82.70;;;;;;4305607;33;20022;-76
2021/04/13 06:53:15;;;;;;;;;;;4.00;82.80;;;;;;4305390;33;21380;-76
2021/04/13 06:55:49;;;;;;;;;;;4.00;82.70;;;;;;4273105;33;20027;-76
2021/04/13 06:58:34;;;;;;;;;;;4.00;82.70;;;;;;4314323;33;20009;-76
2021/04/13 07:01:10;;;;;;;;;;;4.00;82.80;;;;;;4305024;33;24589;-77
2021/04/13 07:03:47;;;;;;;;;;;4.00;82.80;;;;;;4305055;33;20504;-76
2021/04/13 07:06:19;;;;;;;;;;;4.00;82.90;;;;;;4306128;33;20023;-76
2021/04/13 07:08:51;;;;;;;;;;;4.00;83.00;;;;;;4305423;33;20024;-76
2021/04/13 07:11:25;;;;;;;;;;;4.10;83.00;;;;;;4305812;33;20013;-76
2021/04/13 07:14:11;;;;;;;;;;;4.10;83.20;;;;;;4304705;33;40954;-76
2021/04/13 07:16:44;;;;;;;;;;;4.10;83.20;;;;;;4317647;33;21175;-76
2021/04/13 07:19:20;;;;;;;;;;;4.10;83.10;;;;;;4304140;33;34616;-76
2021/04/13 07:21:49;;;;;;;;;;;4.10;83.10;;;;;;4317340;33;43667;-76
2021/04/13 07:24:20;;;;;;;;;;;4.10;83.10;;;;;;4318816;33;20104;-76
2021/04/13 07:27:08;;;;;;;;;;;4.10;83.40;;;;;;4304868;33;19998;-76
2021/04/13 07:29:45;;;;;;;;;;;4.20;83.40;;;;;;4304314;33;44174;-76
2021/04/13 07:32:14;;;;;;;;;;;4.20;83.60;;;;;;4304544;33;25570;-76
2021/04/13 07:34:47;;;;;;;;;;;4.20;83.60;;;;;;4304400;33;20006;-76
2021/04/13 07:37:23;;;;;;;;;;;4.20;83.50;;;;;;4304672;33;20438;-76
2021/04/13 07:39:59;;;;;;;;;;;4.30;83.50;;;;;;4305150;33;20016;-76
2021/04/13 07:42:27;;;;;;;;;;;4.30;83.60;;;;;;4304751;33;19998;-76
2021/04/13 07:45:22;;;;;;;;;;;4.30;83.60;;;;;;4318385;33;20446;-76
2021/04/13 07:48:07;;;;;;;;;;;4.30;83.60;;;;;;4317102;33;39761;-75
2021/04/13 07:50:49;;;;;;;;;;;4.30;83.60;;;;;;4303295;33;45630;-75
2021/04/13 07:53:34;;;;;;;;;;;4.40;83.70;;;;;;4317873;33;20336;-75
2021/04/13 07:56:24;;;;;;;;;;;4.30;83.50;;;;;;4317926;33;20020;-75
2021/04/13 07:59:06;;;;;;;;;;;4.30;83.50;;;;;;4299127;33;20032;-75
2021/04/13 08:01:38;;;;;;;;;;;4.40;83.80;;;;;;4304804;33;20074;-75
2021/04/13 08:04:10;;;;;;;;;;;4.40;84.20;;;;;;4317815;33;20010;-76
2021/04/13 08:06:40;;;;;;;;;;;4.40;84.00;;;;;;4318020;33;20016;-76
2021/04/13 08:09:24;;;;;;;;;;;4.40;84.20;;;;;;4317965;33;20094;-75
2021/04/13 08:12:14;;;;;;;;;;;4.40;83.80;;;;;;4317679;33;20395;-76
2021/04/13 08:14:49;;;;;;;;;;;4.40;83.70;;;;;;4298756;33;20073;-75
2021/04/13 08:17:32;;;;;;;;;;;4.40;83.90;;;;;;4305381;33;20069;-75
2021/04/13 08:20:01;;;;;;;;;;;4.50;84.10;;;;;;4317902;33;20430;-75
2021/04/13 08:22:31;;;;;;;;;;;4.50;83.90;;;;;;4317768;33;20048;-75
2021/04/13 08:25:04;;;;;;;;;;;4.50;83.90;;;;;;4304154;33;20412;-75
2021/04/13 08:27:43;;;;;;;;;;;4.50;83.70;;;;;;4317945;33;20011;-75
2021/04/13 08:30:29;;;;;;;;;;;4.50;83.50;;;;;;4304121;33;20013;-75
2021/04/13 08:33:02;;;;;;;;;;;4.50;83.50;;;;;;4304097;33;20028;-75
2021/04/13 08:35:52;;;;;;;;;;;4.50;83.40;;;;;;4304709;33;20076;-75
2021/04/13 08:38:38;;;;;;;;;;;4.50;83.50;;;;;;4311191;33;20073;-75
2021/04/13 08:41:11;;;;;;;;;;;4.60;83.60;;;;;;4317150;33;20010;-76
2021/04/13 08:43:51;;;;;;;;;;;4.60;83.60;;;;;;4290799;33;45166;-76
2021/04/13 08:46:26;;;;;;;;;;;4.60;83.50;;;;;;4316875;33;21193;-76
2021/04/13 08:49:10;;;;;;;;;;;4.60;83.50;;;;;;4303474;33;20000;-75
2021/04/13 08:51:39;;;;;;;;;;;4.60;83.60;;;;;;4302979;33;44537;-76
2021/04/13 08:54:33;;;;;;;;;;;4.60;83.60;;;;;;4317341;33;20025;-76
2021/04/13 08:57:01;;;;;;;;;;;4.60;83.50;;;;;;4316074;33;43222;-76
2021/04/13 08:59:44;;;;;;;;;;;4.70;83.70;;;;;;4315707;33;20045;-76
2021/04/13 09:02:21;;;;;;;;;;;4.70;83.70;;;;;;4291445;33;20430;-76
2021/04/13 09:05:00;;;;;;;;;;;4.70;83.70;;;;;;4304065;33;20036;-76
2021/04/13 09:07:33;;;;;;;;;;;4.70;83.60;;;;;;4292042;33;20012;-75
2021/04/13 09:10:22;;;;;;;;;;;4.70;83.50;;;;;;4317111;33;20433;-75
2021/04/13 09:13:00;;;;;;;;;;;4.80;83.60;;;;;;4317454;33;20010;-75
2021/04/13 09:15:27;;;;;;;;;;;4.80;83.80;;;;;;4303934;33;20032;-75
2021/04/13 09:18:00;;;;;;;;;;;4.80;83.80;;;;;;4302956;33;44665;-75
2021/04/13 09:20:36;;;;;;;;;;;4.80;83.80;;;;;;4316152;33;41840;-76
2021/04/13 09:23:03;;;;;;;;;;;4.80;83.80;;;;;;4316016;33;43611;-75
2021/04/13 09:25:34;;;;;;;;;;;4.80;83.80;;;;;;4302516;33;45256;-75
2021/04/13 09:28:04;;;;;;;;;;;4.80;83.80;;;;;;4302770;33;43974;-76
2021/04/13 09:30:51;;;;;;;;;;;4.90;83.90;;;;;;4316905;33;20027;-75
2021/04/13 09:33:18;;;;;;;;;;;4.90;83.90;;;;;;4315848;33;41396;-76
2021/04/13 09:35:44;;;;;;;;;;;4.90;83.90;;;;;;4316590;33;20014;-76
2021/04/13 09:38:30;;;;;;;;;;;4.90;83.90;;;;;;4303504;33;20403;-76
2021/04/13 09:41:06;;;;;;;;;;;4.90;83.70;;;;;;4317080;33;20006;-76
2021/04/13 09:44:02;;;;;;;;;;;5.00;83.60;;;;;;4316992;33;20012;-76
2021/04/13 09:46:31;;;;;;;;;;;5.00;83.60;;;;;;4296932;33;22926;-76
2021/04/13 09:49:12;;;;;;;;;;;5.00;83.60;;;;;;4316776;33;20013;-76
2021/04/13 09:51:47;;;;;;;;;;;5.00;83.60;;;;;;4291746;33;19994;-76
2021/04/13 09:54:22;;;;;;;;;;;5.00;83.50;;;;;;4310414;33;19998;-76
2021/04/13 09:57:02;;;;;;;;;;;5.00;83.50;;;;;;4306524;33;20109;-77
2021/04/13 09:59:48;;;;;;;;;;;5.10;83.50;;;;;;4307493;33;20022;-76
2021/04/13 10:02:36;;;;;;;;;;;5.10;83.50;;;;;;4297038;33;20020;-78
2021/04/13 10:05:08;;;;;;;;;;;5.10;83.40;;;;;;4313537;33;19998;-77
2021/04/13 10:07:50;;;;;;;;;;;5.10;83.30;;;;;;4319570;33;20324;-77
2021/04/13 10:10:35;;;;;;;;;;;5.20;83.30;;;;;;4306166;33;20005;-76
2021/04/13 10:13:21;;;;;;;;;;;5.20;83.30;;;;;;4309649;33;20423;-77
2021/04/13 10:15:52;;;;;;;;;;;5.20;83.20;;;;;;4304309;33;20025;-77
2021/04/13 10:18:38;;;;;;;;;;;5.20;83.30;;;;;;4303502;33;20116;-78
2021/04/13 10:21:21;;;;;;;;;;;5.30;83.30;;;;;;4303882;33;20014;-77
2021/04/13 10:24:10;;;;;;;;;;;5.30;83.10;;;;;;4290984;33;20452;-77
2021/04/13 10:26:56;;;;;;;;;;;5.30;83.10;;;;;;4299247;33;20002;-78
2021/04/13 10:29:31;;;;;;;;;;;5.40;83.20;;;;;;4304918;33;20033;-78
2021/04/13 10:32:04;;;;;;;;;;;5.40;83.20;;;;;;4304451;33;20364;-78
2021/04/13 10:34:50;;;;;;;;;;;5.40;83.00;;;;;;4290999;33;20420;-78
2021/04/13 10:37:32;;;;;;;;;;;5.40;82.80;;;;;;4291382;33;20073;-77
2021/04/13 10:39:58;;;;;;;;;;;5.50;82.80;;;;;;4291473;33;20428;-77
2021/04/13 10:42:44;;;;;;;;;;;5.50;82.80;;;;;;4291191;33;20046;-78
2021/04/13 10:45:21;;;;;;;;;;;5.50;82.80;;;;;;4291041;33;20003;-77
2021/04/13 10:47:53;;;;;;;;;;;5.50;82.80;;;;;;4304275;33;20024;-78
2021/04/13 10:50:46;;;;;;;;;;;5.50;82.70;;;;;;4303530;33;39664;-77
2021/04/13 10:53:19;;;;;;;;;;;5.60;82.70;;;;;;4278669;33;41860;-78
2021/04/13 10:56:08;;;;;;;;;;;5.60;82.60;;;;;;4303689;33;39752;-78
2021/04/13 10:58:49;;;;;;;;;;;5.60;82.50;;;;;;4276106;33;45878;-77
2021/04/13 11:01:16;;;;;;;;;;;5.60;82.50;;;;;;4302958;33;42507;-78
2021/04/13 11:04:04;;;;;;;;;;;5.60;82.40;;;;;;4301542;33;36454;-77
2021/04/13 11:06:44;;;;;;;;;;;5.60;82.40;;;;;;4302223;33;43709;-78
2021/04/13 11:09:23;;;;;;;;;;;5.60;82.30;;;;;;4301510;33;43616;-77
2021/04/13 11:11:52;;;;;;;;;;;5.60;82.40;;;;;;4302053;33;23794;-77
2021/04/13 11:14:22;;;;;;;;;;;5.60;82.30;;;;;;4302464;33;20016;-78
2021/04/13 11:17:08;;;;;;;;;;;5.70;82.40;;;;;;4290969;33;20002;-78
2021/04/13 11:20:01;;;;;;;;;;;5.60;82.60;;;;;;4288036;33;20021;-77
2021/04/13 11:22:30;;;;;;;;;;;5.70;82.70;;;;;;4303868;33;20010;-78
2021/04/13 11:25:26;;;;;;;;;;;5.70;82.70;;;;;;4302068;33;20024;-78
2021/04/13 11:27:53;;;;;;;;;;;5.70;82.70;;;;;;4293170;33;44748;-78
2021/04/13 11:30:22;;;;;;;;;;;5.80;82.60;;;;;;4292714;33;20541;-78
2021/04/13 11:33:04;;;;;;;;;;;5.80;82.40;;;;;;4317914;33;20475;-78
2021/04/13 11:35:37;;;;;;;;;;;5.80;82.40;;;;;;4304564;33;20017;-77
2021/04/13 11:38:04;;;;;;;;;;;5.90;82.50;;;;;;4293015;33;20006;-78
2021/04/13 11:41:21;;;;;;;;;;;5.90;82.40;;;;;;4307376;33;20009;-77
2021/04/13 11:43:55;;;;;;;;;;;5.90;82.30;;;;;;4279296;33;20014;-78
2021/04/13 11:46:27;;;;;;;;;;;6.00;82.30;;;;;;4318357;33;20403;-77
2021/04/13 11:49:10;;;;;;;;;;;6.00;82.30;;;;;;4293238;33;20020;-78
2021/04/13 11:51:39;;;;;;;;;;;6.00;82.30;;;;;;4304435;33;22527;-77
2021/04/13 11:54:25;;;;;;;;;;;6.00;82.10;;;;;;4316641;33;20069;-77
2021/04/13 11:57:00;;;;;;;;;;;6.00;82.10;;;;;;4317677;33;20029;-77
2021/04/13 11:59:29;;;;;;;;;;;6.10;82.10;;;;;;4318121;33;20022;-77
2021/04/13 12:02:16;;;;;;;;;;;6.10;82.10;;;;;;4317799;33;20006;-77
2021/04/13 12:04:49;;;;;;;;;;;6.00;82.00;;;;;;4317801;33;20017;-77
2021/04/13 12:07:34;;;;;;;;;;;6.10;82.00;;;;;;4317824;33;20022;-78
2021/04/13 12:10:03;;;;;;;;;;;6.10;81.90;;;;;;4316893;33;20399;-77
2021/04/13 12:12:33;;;;;;;;;;;6.10;81.80;;;;;;4292604;33;20018;-78
2021/04/13 12:15:02;;;;;;;;;;;6.10;82.00;;;;;;4304708;33;20066;-77
2021/04/13 12:17:41;;;;;;;;;;;6.20;82.20;;;;;;4292267;33;20050;-78
2021/04/13 12:20:33;;;;;;;;;;;6.20;82.20;;;;;;4317854;33;20020;-78
2021/04/13 12:23:01;;;;;;;;;;;6.30;82.10;;;;;;4299043;33;20106;-78
2021/04/13 12:25:37;;;;;;;;;;;6.30;82.00;;;;;;4304371;33;20014;-78
2021/04/13 12:28:07;;;;;;;;;;;6.30;81.80;;;;;;4304592;33;20020;-78
2021/04/13 12:30:45;;;;;;;;;;;6.40;81.90;;;;;;4304934;33;20014;-77
2021/04/13 12:33:26;;;;;;;;;;;6.40;82.00;;;;;;4317472;33;20355;-78
2021/04/13 12:36:05;;;;;;;;;;;6.50;81.90;;;;;;4304417;33;20033;-77
2021/04/13 12:38:38;;;;;;;;;;;6.60;81.90;;;;;;4292129;33;20006;-77
2021/04/13 12:41:10;;;;;;;;;;;6.60;81.80;;;;;;4291251;33;35679;-77
2021/04/13 12:43:51;;;;;;;;;;;6.60;81.00;;;;;;4303562;33;34254;-77
2021/04/13 12:46:36;;;;;;;;;;;6.60;80.80;;;;;;4317408;33;20010;-77
2021/04/13 12:49:06;;;;;;;;;;;6.60;80.80;;;;;;4304459;33;20048;-77
2021/04/13 12:51:49;;;;;;;;;;;6.60;80.70;;;;;;4317491;33;20002;-77
2021/04/13 12:54:15;;;;;;;;;;;6.60;80.50;;;;;;4304251;33;20006;-77
2021/04/13 12:56:50;;;;;;;;;;;6.60;80.30;;;;;;4304112;33;20039;-77
2021/04/13 12:59:20;;;;;;;;;;;6.60;80.20;;;;;;4304299;33;19998;-77
2021/04/13 13:01:50;;;;;;;;;;;6.70;80.20;;;;;;4317246;33;20089;-77
2021/04/13 13:04:18;;;;;;;;;;;6.70;80.40;;;;;;4316865;33;20018;-77
2021/04/13 13:06:49;;;;;;;;;;;6.70;80.40;;;;;;4303133;33;22058;-77
2021/04/13 13:09:19;;;;;;;;;;;6.70;80.90;;;;;;4304373;33;20029;-77
2021/04/13 13:11:55;;;;;;;;;;;6.80;80.90;;;;;;4304543;33;20021;-77
2021/04/13 13:14:26;;;;;;;;;;;6.80;80.90;;;;;;4317395;33;20055;-77
2021/04/13 13:16:57;;;;;;;;;;;6.90;80.90;;;;;;4316030;33;35116;-77
2021/04/13 13:19:30;;;;;;;;;;;6.90;80.90;;;;;;4303022;33;41303;-77
2021/04/13 13:21:58;;;;;;;;;;;7.00;80.30;;;;;;4316255;33;44377;-77
2021/04/13 13:24:37;;;;;;;;;;;7.00;80.40;;;;;;4303584;33;27614;-76
2021/04/13 13:27:13;;;;;;;;;;;7.00;80.40;;;;;;4316372;33;31160;-76
2021/04/13 13:29:48;;;;;;;;;;;7.10;80.50;;;;;;4302720;33;36091;-76
2021/04/13 13:32:18;;;;;;;;;;;7.10;80.30;;;;;;4303537;33;20002;-76
2021/04/13 13:34:49;;;;;;;;;;;7.10;80.20;;;;;;4317932;33;34001;-76
2021/04/13 13:37:16;;;;;;;;;;;7.10;80.00;;;;;;4318999;33;41264;-76
2021/04/13 13:39:43;;;;;;;;;;;7.10;79.70;;;;;;4317714;33;34376;-76
2021/04/13 13:42:15;;;;;;;;;;;7.10;79.50;;;;;;4318671;33;44468;-76
2021/04/13 13:44:43;;;;;;;;;;;7.20;79.40;;;;;;4307099;33;20065;-75
2021/04/13 13:47:16;;;;;;;;;;;7.20;79.50;;;;;;4306797;33;20049;-76
2021/04/13 13:49:43;;;;;;;;;;;7.20;79.70;;;;;;4305801;33;19994;-76
2021/04/13 13:52:32;;;;;;;;;;;7.20;79.90;;;;;;4319718;33;20068;-76
2021/04/13 13:55:11;;;;;;;;;;;7.20;79.80;;;;;;4319888;33;20006;-76
2021/04/13 13:57:38;;;;;;;;;;;7.30;79.80;;;;;;4305545;33;44721;-76
2021/04/13 14:00:05;;;;;;;;;;;7.30;79.60;;;;;;4306174;33;20021;-76
2021/04/13 14:02:35;;;;;;;;;;;7.30;79.80;;;;;;4319307;33;20018;-76
2021/04/13 14:05:19;;;;;;;;;;;7.40;79.70;;;;;;4318625;33;39005;-76
2021/04/13 14:07:49;;;;;;;;;;;7.40;79.30;;;;;;4306437;33;20017;-76
2021/04/13 14:10:24;;;;;;;;;;;7.40;79.30;;;;;;4319843;33;20006;-76
2021/04/13 14:12:51;;;;;;;;;;;7.40;79.10;;;;;;4319087;33;20073;-76
2021/04/13 14:15:36;;;;;;;;;;;7.50;78.80;;;;;;4306079;33;20047;-76
2021/04/13 14:18:08;;;;;;;;;;;7.50;78.90;;;;;;4294234;33;20429;-76
2021/04/13 14:20:55;;;;;;;;;;;7.50;78.90;;;;;;4319569;33;20433;-76
2021/04/13 14:23:21;;;;;;;;;;;7.50;79.10;;;;;;4294246;33;20075;-76
2021/04/13 14:25:51;;;;;;;;;;;7.60;79.20;;;;;;4305316;33;36765;-76
2021/04/13 14:28:24;;;;;;;;;;;7.60;79.40;;;;;;4305067;33;43211;-76
2021/04/13 14:30:54;;;;;;;;;;;7.60;79.60;;;;;;4293723;33;20069;-76
2021/04/13 14:33:22;;;;;;;;;;;7.70;79.60;;;;;;4304621;33;43376;-76
2021/04/13 14:35:48;;;;;;;;;;;7.70;79.60;;;;;;4305250;33;44071;-76
2021/04/13 14:38:17;;;;;;;;;;;7.70;79.50;;;;;;4304911;33;43368;-76
2021/04/13 14:40:44;;;;;;;;;;;7.80;79.60;;;;;;4318706;33;20016;-76
2021/04/13 14:43:11;;;;;;;;;;;7.80;79.30;;;;;;4318806;33;20012;-76
2021/04/13 14:45:40;;;;;;;;;;;7.80;79.00;;;;;;4317981;33;20045;-76
2021/04/13 14:48:18;;;;;;;;;;;7.90;78.70;;;;;;4305841;33;20351;-76
2021/04/13 14:50:46;;;;;;;;;;;7.90;78.60;;;;;;4292409;33;40776;-76
2021/04/13 14:53:14;;;;;;;;;;;7.90;78.60;;;;;;4292433;33;43737;-76
2021/04/13 14:55:41;;;;;;;;;;;7.90;78.20;;;;;;4317269;33;43660;-76
2021/04/13 14:58:20;;;;;;;;;;;7.90;77.80;;;;;;4304000;33;44511;-75
2021/04/13 15:00:46;;;;;;;;;;;7.90;77.70;;;;;;4304950;33;44325;-76
2021/04/13 15:03:16;;;;;;;;;;;7.90;77.40;;;;;;4316128;33;43668;-74
2021/04/13 15:05:46;;;;;;;;;;;8.00;77.30;;;;;;4305177;33;19993;-76
2021/04/13 15:08:18;;;;;;;;;;;8.00;77.30;;;;;;4319123;33;20002;-75
2021/04/13 15:10:48;;;;;;;;;;;8.00;77.20;;;;;;4305441;33;20429;-75
2021/04/13 15:13:17;;;;;;;;;;;8.00;77.00;;;;;;4318742;33;20028;-75
2021/04/13 15:15:53;;;;;;;;;;;8.00;77.00;;;;;;4304675;33;33678;-75
2021/04/13 15:18:21;;;;;;;;;;;8.00;77.00;;;;;;4304728;33;32358;-76
2021/04/13 15:20:50;;;;;;;;;;;8.00;76.80;;;;;;4317399;33;44726;-75